Time;durP1;ratioP1;P1;durP2;ratioP2;P2;SDS_P1;SDS_P2;PMS_P1;PMS_P2;Temp;Humidity;BMP_temperature;BMP_pressure;BME280_temperature;BME280_humidity;BME280_pressure;Samples;Min_cycle;Max_cycle;Signal;HPM_P1;HPM_P2
2023/04/18 00:03:03;;;;;;;;;;;17.40;60.90;;;;;;10168750;28;94428;-66
2023/04/18 00:08:05;;;;;;;;;;;17.40;60.90;;;;;;10168675;28;94374;-66
2023/04/18 00:13:07;;;;;;;;;;;17.30;60.80;;;;;;10168269;28;92607;-66
2023/04/18 00:18:09;;;;;;;;;;;17.40;60.80;;;;;;10168470;28;94073;-66
2023/04/18 00:23:12;;;;;;;;;;;17.30;60.70;;;;;;10149816;28;92586;-66
2023/04/18 00:28:14;;;;;;;;;;;17.40;60.60;;;;;;10165239;28;96792;-65
2023/04/18 00:33:16;;;;;;;;;;;17.30;60.60;;;;;;10167594;28;94489;-65
2023/04/18 00:38:18;;;;;;;;;;;17.30;60.40;;;;;;10167124;28;93694;-66
2023/04/18 00:43:21;;;;;;;;;;;17.30;60.30;;;;;;10166859;28;94572;-65
2023/04/18 00:48:23;;;;;;;;;;;17.30;60.30;;;;;;10167171;28;93414;-65
2023/04/18 00:53:24;;;;;;;;;;;17.30;60.20;;;;;;10166400;28;93357;-66
2023/04/18 00:58:26;;;;;;;;;;;17.30;60.00;;;;;;10167271;28;94607;-66
2023/04/18 01:03:28;;;;;;;;;;;17.30;59.90;;;;;;10150175;28;93520;-67
2023/04/18 01:08:30;;;;;;;;;;;17.30;59.80;;;;;;10149214;28;94529;-66
2023/04/18 01:13:32;;;;;;;;;;;17.30;59.70;;;;;;10166737;28;94540;-65
2023/04/18 01:18:34;;;;;;;;;;;17.30;59.60;;;;;;10163295;28;96893;-66
2023/04/18 01:23:36;;;;;;;;;;;17.30;59.50;;;;;;10166763;28;93524;-65
2023/04/18 01:28:37;;;;;;;;;;;17.30;59.50;;;;;;10165456;28;93507;-66
2023/04/18 01:33:39;;;;;;;;;;;17.30;59.30;;;;;;10170387;28;93904;-65
2023/04/18 01:38:41;;;;;;;;;;;17.30;59.20;;;;;;10155534;28;93494;-66
2023/04/18 01:43:43;;;;;;;;;;;17.30;59.10;;;;;;10156204;28;93725;-66
2023/04/18 01:48:44;;;;;;;;;;;17.30;59.00;;;;;;10172141;28;94914;-66
2023/04/18 01:53:46;;;;;;;;;;;17.30;58.90;;;;;;10172108;28;92770;-65
2023/04/18 01:58:47;;;;;;;;;;;17.30;58.90;;;;;;10172098;28;93569;-66
2023/04/18 02:03:49;;;;;;;;;;;17.30;58.80;;;;;;10172044;28;94282;-66
2023/04/18 02:08:51;;;;;;;;;;;17.30;58.70;;;;;;10169882;28;95816;-66
2023/04/18 02:13:53;;;;;;;;;;;17.30;58.70;;;;;;10172141;28;93559;-67
2023/04/18 02:18:55;;;;;;;;;;;17.20;58.60;;;;;;10172046;28;94188;-66
2023/04/18 02:23:57;;;;;;;;;;;17.20;58.60;;;;;;10171607;28;93659;-66
2023/04/18 02:28:59;;;;;;;;;;;17.20;58.60;;;;;;10171874;28;94286;-66
2023/04/18 02:34:01;;;;;;;;;;;17.20;58.50;;;;;;10170648;28;94484;-66
2023/04/18 02:39:03;;;;;;;;;;;17.20;58.40;;;;;;10170200;28;92995;-66
2023/04/18 02:44:05;;;;;;;;;;;17.20;58.40;;;;;;10170397;28;92903;-67
2023/04/18 02:49:07;;;;;;;;;;;17.10;58.40;;;;;;10152178;28;93295;-66
2023/04/18 02:54:09;;;;;;;;;;;17.10;58.30;;;;;;10170833;28;94547;-66
2023/04/18 02:59:10;;;;;;;;;;;17.10;58.30;;;;;;10167195;28;96477;-66
2023/04/18 03:04:12;;;;;;;;;;;17.10;58.30;;;;;;10169931;28;93547;-66
2023/04/18 03:09:15;;;;;;;;;;;17.10;58.30;;;;;;10169725;28;93681;-66
2023/04/18 03:14:17;;;;;;;;;;;17.10;58.30;;;;;;10169216;28;93703;-66
2023/04/18 03:19:19;;;;;;;;;;;17.10;58.20;;;;;;10169332;28;94423;-66
2023/04/18 03:24:20;;;;;;;;;;;17.00;58.20;;;;;;10152338;28;93945;-66
2023/04/18 03:29:22;;;;;;;;;;;17.00;58.20;;;;;;10168814;28;93643;-67
2023/04/18 03:34:24;;;;;;;;;;;17.00;58.10;;;;;;10169798;28;93807;-67
2023/04/18 03:39:25;;;;;;;;;;;17.00;58.10;;;;;;10169608;28;94633;-66
2023/04/18 03:44:27;;;;;;;;;;;17.00;58.10;;;;;;10151674;28;93569;-66
2023/04/18 05:08:03;;;;;;;;;;;16.90;58.10;;;;;;10248509;28;93815;-66
2023/04/18 05:13:05;;;;;;;;;;;17.00;58.10;;;;;;10253708;28;93282;-65
2023/04/18 05:18:06;;;;;;;;;;;17.00;57.90;;;;;;10235306;28;92811;-65
2023/04/18 05:23:08;;;;;;;;;;;17.10;57.90;;;;;;10254095;28;94600;-66
2023/04/18 05:28:09;;;;;;;;;;;17.00;58.00;;;;;;10235463;28;93402;-66
2023/04/18 05:33:11;;;;;;;;;;;17.10;57.90;;;;;;10254272;28;92761;-67
2023/04/18 05:38:13;;;;;;;;;;;17.00;57.90;;;;;;10292542;28;93470;-65
2023/04/18 05:43:14;;;;;;;;;;;17.00;58.50;;;;;;10293306;28;94443;-66
2023/04/18 05:48:16;;;;;;;;;;;17.10;59.00;;;;;;10273666;28;95732;-66
2023/04/18 05:53:18;;;;;;;;;;;17.10;59.60;;;;;;10250381;28;93950;-66
2023/04/18 05:58:20;;;;;;;;;;;17.20;59.50;;;;;;10252509;28;94745;-65
2023/04/18 06:03:21;;;;;;;;;;;17.20;58.90;;;;;;10248020;28;93186;-65
2023/04/18 06:08:23;;;;;;;;;;;17.20;59.20;;;;;;10232587;28;94563;-66
2023/04/18 06:13:25;;;;;;;;;;;17.20;60.10;;;;;;10251544;28;94468;-68
2023/04/18 06:18:26;;;;;;;;;;;17.30;62.20;;;;;;10251020;28;94524;-67
2023/04/18 06:23:28;;;;;;;;;;;17.30;62.00;;;;;;10250060;28;92736;-70
2023/04/18 06:28:30;;;;;;;;;;;17.30;61.50;;;;;;10233652;28;94497;-69
2023/04/18 06:33:32;;;;;;;;;;;17.30;62.70;;;;;;10233245;28;94617;-68
2023/04/18 06:38:34;;;;;;;;;;;17.30;63.40;;;;;;10246703;28;96828;-68
2023/04/18 06:43:35;;;;;;;;;;;17.20;63.30;;;;;;10233442;28;93716;-69
2023/04/18 06:48:37;;;;;;;;;;;17.20;63.50;;;;;;10249583;28;93407;-68
2023/04/18 06:53:39;;;;;;;;;;;17.20;64.00;;;;;;10231866;28;93838;-68
2023/04/18 06:58:40;;;;;;;;;;;17.20;63.90;;;;;;10249971;28;93602;-68
2023/04/18 07:03:42;;;;;;;;;;;17.20;63.70;;;;;;10222898;28;93648;-67
2023/04/18 07:08:44;;;;;;;;;;;17.20;63.70;;;;;;10229199;28;93839;-67
2023/04/18 07:13:47;;;;;;;;;;;17.10;63.50;;;;;;10233846;28;93551;-67
2023/04/18 07:18:50;;;;;;;;;;;17.10;63.50;;;;;;10249579;28;94378;-67
2023/04/18 07:23:52;;;;;;;;;;;17.10;63.30;;;;;;10250362;28;93686;-66
2023/04/18 07:28:53;;;;;;;;;;;17.10;63.70;;;;;;10213173;28;96041;-66
2023/04/18 07:33:55;;;;;;;;;;;17.10;64.60;;;;;;10248894;28;93412;-66
2023/04/18 07:38:57;;;;;;;;;;;17.20;63.10;;;;;;10197294;28;93642;-65
2023/04/18 07:43:59;;;;;;;;;;;17.20;62.90;;;;;;10199950;28;93314;-66
2023/04/18 07:49:02;;;;;;;;;;;17.20;62.90;;;;;;10204750;28;94458;-66
2023/04/18 07:54:04;;;;;;;;;;;17.20;62.80;;;;;;10204274;28;94870;-66
2023/04/18 07:59:05;;;;;;;;;;;17.20;62.70;;;;;;10205094;28;94465;-65
2023/04/18 08:04:07;;;;;;;;;;;17.20;62.70;;;;;;10206508;28;93367;-65
2023/04/18 08:09:10;;;;;;;;;;;17.10;62.60;;;;;;10207653;28;94434;-66
2023/04/18 08:14:12;;;;;;;;;;;17.10;62.60;;;;;;10207052;28;93456;-66
2023/04/18 08:19:14;;;;;;;;;;;17.10;62.60;;;;;;10204518;28;95950;-65
2023/04/18 08:24:16;;;;;;;;;;;17.10;62.40;;;;;;10207853;28;93418;-65
2023/04/18 08:29:18;;;;;;;;;;;17.10;62.40;;;;;;10206438;28;93502;-66
2023/04/18 08:34:20;;;;;;;;;;;17.10;62.40;;;;;;10207714;28;93356;-66
2023/04/18 08:39:21;;;;;;;;;;;17.10;62.40;;;;;;10208086;28;93436;-66
2023/04/18 08:44:29;;;;;;;;;;;17.10;62.40;;;;;;10207194;28;93462;-65
2023/04/18 08:49:31;;;;;;;;;;;17.10;62.30;;;;;;10206659;28;94525;-66
2023/04/18 08:54:33;;;;;;;;;;;17.10;62.20;;;;;;10208402;28;94032;-66
2023/04/18 08:59:35;;;;;;;;;;;17.10;62.10;;;;;;10206149;28;93658;-66
2023/04/18 09:04:42;;;;;;;;;;;17.10;62.10;;;;;;10206710;28;93572;-65
2023/04/18 09:09:48;;;;;;;;;;;17.10;62.10;;;;;;10195910;28;95838;-65
2023/04/18 09:14:53;;;;;;;;;;;17.10;62.10;;;;;;10205405;28;93493;-65
2023/04/18 09:19:55;;;;;;;;;;;17.10;62.00;;;;;;10205910;28;93762;-65
2023/04/18 09:24:57;;;;;;;;;;;17.10;62.10;;;;;;10221019;28;93399;-65
2023/04/18 09:29:59;;;;;;;;;;;17.10;62.10;;;;;;10203825;28;93453;-65
2023/04/18 09:35:04;;;;;;;;;;;17.10;62.10;;;;;;10206179;28;93509;-66
2023/04/18 09:40:15;;;;;;;;;;;17.10;62.00;;;;;;10206029;28;94496;-65
2023/04/18 09:45:17;;;;;;;;;;;17.10;62.00;;;;;;10206364;28;93098;-66
2023/04/18 09:50:19;;;;;;;;;;;17.10;62.00;;;;;;10205339;28;93683;-65
2023/04/18 09:55:21;;;;;;;;;;;17.20;61.90;;;;;;10225683;28;95037;-66
2023/04/18 10:00:24;;;;;;;;;;;17.20;61.70;;;;;;10210793;28;96823;-65
2023/04/18 10:05:27;;;;;;;;;;;17.30;61.70;;;;;;10210200;28;93502;-65
2023/04/18 10:10:29;;;;;;;;;;;17.30;61.70;;;;;;10211384;28;94498;-66
2023/04/18 10:15:31;;;;;;;;;;;17.30;61.60;;;;;;10212383;28;93504;-66
2023/04/18 10:20:33;;;;;;;;;;;17.30;61.50;;;;;;10211452;28;93587;-66
2023/04/18 10:25:38;;;;;;;;;;;17.40;61.40;;;;;;10211229;28;93581;-66
2023/04/18 10:30:40;;;;;;;;;;;17.40;61.30;;;;;;10210730;28;92704;-66
2023/04/18 10:35:55;;;;;;;;;;;17.40;61.30;;;;;;10211882;28;92258;-66
2023/04/18 10:41:12;;;;;;;;;;;17.40;61.20;;;;;;10210505;28;93532;-66
2023/04/18 10:46:15;;;;;;;;;;;17.50;61.30;;;;;;10210584;28;93638;-66
2023/04/18 10:51:32;;;;;;;;;;;17.60;61.10;;;;;;10200001;28;96262;-66
2023/04/18 10:56:34;;;;;;;;;;;17.60;61.20;;;;;;10209102;28;92755;-66
2023/04/18 11:01:36;;;;;;;;;;;17.60;61.10;;;;;;10210551;28;94491;-65
2023/04/18 11:06:52;;;;;;;;;;;17.60;61.20;;;;;;10209702;28;93692;-65
2023/04/18 11:12:04;;;;;;;;;;;17.60;61.20;;;;;;10209516;28;92900;-66
2023/04/18 11:17:19;;;;;;;;;;;17.50;61.10;;;;;;10209861;28;93606;-66
2023/04/18 11:22:20;;;;;;;;;;;17.50;61.10;;;;;;10209291;28;94801;-65
2023/04/18 11:27:23;;;;;;;;;;;17.50;61.10;;;;;;10210444;28;92800;-65
2023/04/18 11:32:25;;;;;;;;;;;17.50;61.20;;;;;;10209286;28;94693;-66
2023/04/18 11:37:26;;;;;;;;;;;17.50;61.30;;;;;;10209669;28;94095;-66
2023/04/18 11:42:30;;;;;;;;;;;17.50;61.30;;;;;;10205883;28;97182;-66
2023/04/18 11:47:33;;;;;;;;;;;17.50;61.30;;;;;;10190994;28;93408;-66
2023/04/18 11:52:35;;;;;;;;;;;17.50;61.30;;;;;;10207890;28;93836;-65
2023/04/18 11:57:36;;;;;;;;;;;17.60;61.50;;;;;;10208891;28;94480;-65
2023/04/18 12:02:42;;;;;;;;;;;17.60;61.50;;;;;;10207555;28;93318;-66
2023/04/18 12:07:44;;;;;;;;;;;17.60;61.60;;;;;;10207814;28;94026;-65
2023/04/18 12:12:47;;;;;;;;;;;17.60;61.50;;;;;;10208167;28;94801;-65
2023/04/18 12:17:50;;;;;;;;;;;17.60;61.50;;;;;;10206641;28;93005;-65
2023/04/18 12:22:53;;;;;;;;;;;17.60;61.60;;;;;;10208477;28;94491;-65
2023/04/18 12:28:03;;;;;;;;;;;17.60;61.60;;;;;;10206726;28;93653;-66
2023/04/18 12:33:05;;;;;;;;;;;17.50;61.60;;;;;;10205213;28;96414;-65
2023/04/18 12:38:07;;;;;;;;;;;17.50;61.70;;;;;;10207847;28;93853;-65
2023/04/18 12:43:09;;;;;;;;;;;17.50;61.80;;;;;;10207572;28;94582;-65
2023/04/18 12:48:10;;;;;;;;;;;17.50;61.80;;;;;;10207134;28;93637;-66
2023/04/18 12:53:12;;;;;;;;;;;17.50;61.80;;;;;;10206850;28;93456;-65
2023/04/18 12:58:17;;;;;;;;;;;17.50;61.90;;;;;;10206733;28;93332;-65
2023/04/18 13:03:19;;;;;;;;;;;17.50;61.90;;;;;;10206776;28;94487;-65
2023/04/18 13:08:22;;;;;;;;;;;17.50;61.90;;;;;;10206767;28;93056;-66
2023/04/18 13:13:23;;;;;;;;;;;17.50;61.90;;;;;;10206452;28;93482;-66
2023/04/18 13:18:25;;;;;;;;;;;17.50;61.90;;;;;;10205986;28;92882;-65
2023/04/18 13:23:27;;;;;;;;;;;17.50;61.90;;;;;;10203630;28;95893;-65
2023/04/18 13:28:29;;;;;;;;;;;17.60;62.00;;;;;;10209178;28;93491;-66
2023/04/18 13:33:31;;;;;;;;;;;17.60;62.00;;;;;;10213211;28;93505;-65
2023/04/18 13:38:33;;;;;;;;;;;17.60;62.00;;;;;;10213326;28;93242;-65
2023/04/18 13:43:34;;;;;;;;;;;17.60;62.00;;;;;;10210937;28;93621;-66
2023/04/18 13:48:36;;;;;;;;;;;17.60;62.00;;;;;;10212762;28;93155;-65
2023/04/18 13:53:38;;;;;;;;;;;17.60;62.00;;;;;;10212838;28;93366;-66
2023/04/18 13:58:39;;;;;;;;;;;17.70;62.10;;;;;;10212844;28;92105;-65
2023/04/18 14:03:41;;;;;;;;;;;17.70;62.10;;;;;;10212040;28;93442;-66
2023/04/18 14:08:44;;;;;;;;;;;17.70;62.10;;;;;;10211148;28;93479;-65
2023/04/18 14:13:46;;;;;;;;;;;17.70;62.10;;;;;;10208817;28;94911;-66
2023/04/18 14:18:47;;;;;;;;;;;17.70;62.10;;;;;;10212266;28;94643;-66
2023/04/18 14:23:50;;;;;;;;;;;17.70;62.10;;;;;;10210883;28;93461;-65
2023/04/18 14:28:52;;;;;;;;;;;17.60;62.00;;;;;;10211643;28;93452;-65
2023/04/18 14:33:54;;;;;;;;;;;17.70;62.10;;;;;;10210810;28;94065;-65
2023/04/18 14:38:56;;;;;;;;;;;17.70;62.20;;;;;;10209390;28;93728;-65
2023/04/18 14:43:58;;;;;;;;;;;17.70;62.10;;;;;;10211635;28;93904;-66
2023/04/18 14:48:59;;;;;;;;;;;17.70;62.10;;;;;;10210875;28;93934;-64
2023/04/18 14:54:01;;;;;;;;;;;17.80;62.20;;;;;;10208777;28;93404;-65
2023/04/18 14:59:03;;;;;;;;;;;17.80;62.30;;;;;;10209740;28;94293;-66
2023/04/18 15:04:05;;;;;;;;;;;17.80;62.20;;;;;;10207476;28;96172;-66
2023/04/18 15:09:07;;;;;;;;;;;17.80;62.20;;;;;;10209747;28;94243;-66
2023/04/18 15:14:08;;;;;;;;;;;17.80;62.20;;;;;;10210323;28;94440;-65
2023/04/18 15:19:10;;;;;;;;;;;17.80;62.20;;;;;;10208723;28;92510;-65
2023/04/18 15:24:12;;;;;;;;;;;17.90;62.20;;;;;;10209236;28;94498;-65
2023/04/18 15:29:14;;;;;;;;;;;17.90;62.20;;;;;;10210358;28;94052;-66
2023/04/18 15:34:16;;;;;;;;;;;17.90;62.20;;;;;;10209408;28;92795;-65
2023/04/18 15:39:22;;;;;;;;;;;17.90;62.20;;;;;;10209240;28;92738;-65
2023/04/18 15:44:23;;;;;;;;;;;18.00;62.30;;;;;;10207965;28;93641;-66
2023/04/18 15:49:25;;;;;;;;;;;18.00;62.40;;;;;;10207270;28;93752;-66
2023/04/18 15:54:27;;;;;;;;;;;18.00;62.40;;;;;;10206641;28;96926;-65
2023/04/18 15:59:29;;;;;;;;;;;18.10;62.40;;;;;;10208056;28;93699;-65
2023/04/18 16:04:31;;;;;;;;;;;18.10;62.30;;;;;;10207573;28;94169;-66
2023/04/18 16:09:33;;;;;;;;;;;18.10;62.30;;;;;;10208453;28;93689;-65
2023/04/18 16:14:35;;;;;;;;;;;18.10;62.50;;;;;;10207226;28;93189;-66
2023/04/18 16:19:37;;;;;;;;;;;18.10;62.60;;;;;;10190716;28;93547;-65
2023/04/18 16:24:40;;;;;;;;;;;18.10;62.50;;;;;;10207910;28;93386;-66
2023/04/18 16:29:43;;;;;;;;;;;18.10;62.40;;;;;;10208788;28;92663;-66
2023/04/18 16:34:45;;;;;;;;;;;18.20;62.60;;;;;;10207081;28;93941;-66
2023/04/18 16:39:47;;;;;;;;;;;18.20;62.60;;;;;;10206764;28;93234;-66
2023/04/18 16:44:48;;;;;;;;;;;18.20;62.60;;;;;;10204245;28;95887;-66
2023/04/18 16:49:50;;;;;;;;;;;18.20;62.50;;;;;;10206412;28;94272;-65
2023/04/18 16:54:52;;;;;;;;;;;18.10;62.40;;;;;;10215128;28;94251;-65
2023/04/18 16:59:53;;;;;;;;;;;18.20;62.70;;;;;;10246037;28;92760;-65
2023/04/18 17:04:55;;;;;;;;;;;18.30;62.50;;;;;;10253081;28;93492;-66
2023/04/18 17:09:57;;;;;;;;;;;18.40;62.20;;;;;;10253755;28;93428;-65
2023/04/18 17:14:59;;;;;;;;;;;18.40;62.10;;;;;;10235738;28;93690;-65
2023/04/18 17:20:01;;;;;;;;;;;18.30;62.20;;;;;;10255275;28;91903;-65
2023/04/18 17:25:02;;;;;;;;;;;18.30;62.30;;;;;;10254028;28;94361;-65
2023/04/18 17:30:04;;;;;;;;;;;18.20;62.40;;;;;;10253012;28;93197;-65
2023/04/18 17:35:06;;;;;;;;;;;18.20;62.50;;;;;;10250954;28;96921;-65
2023/04/18 17:40:10;;;;;;;;;;;18.10;62.50;;;;;;10252790;28;93211;-66
2023/04/18 17:45:12;;;;;;;;;;;18.10;62.70;;;;;;10252484;28;93467;-66
2023/04/18 17:50:13;;;;;;;;;;;18.10;62.70;;;;;;10233559;28;93489;-65
2023/04/18 17:55:15;;;;;;;;;;;18.10;62.80;;;;;;10251672;28;93484;-65
2023/04/18 18:00:17;;;;;;;;;;;18.00;62.90;;;;;;10234737;28;94477;-65
2023/04/18 18:05:18;;;;;;;;;;;18.00;62.90;;;;;;10250924;28;94526;-65
2023/04/18 18:10:22;;;;;;;;;;;18.00;63.00;;;;;;10253322;28;92208;-65
2023/04/18 18:15:24;;;;;;;;;;;17.90;63.00;;;;;;10216753;28;93594;-65
2023/04/18 18:20:26;;;;;;;;;;;17.90;63.00;;;;;;10251796;28;94642;-65
2023/04/18 18:25:28;;;;;;;;;;;17.90;63.10;;;;;;10249288;28;95289;-67
2023/04/18 18:30:30;;;;;;;;;;;17.90;63.20;;;;;;10233870;28;94476;-66
2023/04/18 18:35:31;;;;;;;;;;;17.90;63.20;;;;;;10251186;28;94390;-66
2023/04/18 18:40:33;;;;;;;;;;;17.80;63.20;;;;;;10251194;28;93464;-66
2023/04/18 18:45:35;;;;;;;;;;;17.80;63.10;;;;;;10250643;28;94438;-67
2023/04/18 18:50:37;;;;;;;;;;;17.80;63.10;;;;;;10250009;28;93273;-67
2023/04/18 18:55:38;;;;;;;;;;;17.80;63.20;;;;;;10250791;28;93997;-66
2023/04/18 19:00:40;;;;;;;;;;;17.80;63.10;;;;;;10250874;28;92648;-67
2023/04/18 19:05:42;;;;;;;;;;;17.80;63.10;;;;;;10231754;28;93481;-66
2023/04/18 19:10:43;;;;;;;;;;;17.80;63.20;;;;;;10248889;28;93452;-66
2023/04/18 19:15:45;;;;;;;;;;;17.80;63.10;;;;;;10247404;28;95832;-66
2023/04/18 19:20:48;;;;;;;;;;;17.80;63.20;;;;;;10248384;28;93743;-66
2023/04/18 19:25:50;;;;;;;;;;;17.80;63.10;;;;;;10231754;28;94401;-66
2023/04/18 19:30:52;;;;;;;;;;;17.80;63.20;;;;;;10248538;28;94414;-65
2023/04/18 19:35:53;;;;;;;;;;;17.80;63.20;;;;;;10248988;28;93412;-65
2023/04/18 19:40:55;;;;;;;;;;;17.80;63.10;;;;;;10248976;28;94271;-65
2023/04/18 19:45:57;;;;;;;;;;;17.80;63.10;;;;;;10247710;28;94419;-64
2023/04/18 19:51:03;;;;;;;;;;;17.80;63.20;;;;;;10230421;28;113838;-64
2023/04/18 19:56:04;;;;;;;;;;;17.80;63.20;;;;;;10248263;28;93579;-65
2023/04/18 20:01:08;;;;;;;;;;;17.80;63.10;;;;;;10247673;28;93758;-65
2023/04/18 20:06:10;;;;;;;;;;;17.80;63.10;;;;;;10245769;28;96626;-65
2023/04/18 20:11:15;;;;;;;;;;;17.80;63.10;;;;;;10247276;28;93291;-65
2023/04/18 20:16:16;;;;;;;;;;;17.80;63.10;;;;;;10248383;28;94295;-65
2023/04/18 20:21:18;;;;;;;;;;;17.80;63.10;;;;;;10229554;28;94603;-64
2023/04/18 20:26:20;;;;;;;;;;;17.80;63.10;;;;;;10246400;28;94543;-65
2023/04/18 20:31:21;;;;;;;;;;;17.80;63.10;;;;;;10229642;28;94644;-65
2023/04/18 20:36:24;;;;;;;;;;;17.80;63.10;;;;;;10228527;28;94234;-66
2023/04/18 20:41:25;;;;;;;;;;;17.80;63.10;;;;;;10246914;28;92824;-64
2023/04/18 20:46:27;;;;;;;;;;;17.70;62.90;;;;;;10247432;28;93896;-65
2023/04/18 20:51:30;;;;;;;;;;;17.70;62.80;;;;;;10246325;28;94518;-66
2023/04/18 20:56:34;;;;;;;;;;;17.70;63.70;;;;;;10245463;28;96868;-65
2023/04/18 21:01:36;;;;;;;;;;;17.70;62.70;;;;;;10229696;28;93538;-66
2023/04/18 21:06:38;;;;;;;;;;;17.70;62.70;;;;;;10247700;28;94672;-66
2023/04/18 21:11:39;;;;;;;;;;;17.70;62.70;;;;;;10246421;28;94446;-66
2023/04/18 21:16:41;;;;;;;;;;;17.60;62.60;;;;;;10246872;28;94328;-66
2023/04/18 21:21:44;;;;;;;;;;;17.60;62.60;;;;;;10245521;28;94510;-66
2023/04/18 21:26:45;;;;;;;;;;;17.60;62.50;;;;;;10228426;28;94482;-65
2023/04/18 21:31:48;;;;;;;;;;;17.60;62.40;;;;;;10229413;28;93721;-65
2023/04/18 21:36:50;;;;;;;;;;;17.50;62.30;;;;;;10245442;28;93455;-65
2023/04/18 21:41:52;;;;;;;;;;;17.60;62.20;;;;;;10227916;28;93656;-65
2023/04/18 21:46:55;;;;;;;;;;;17.50;62.10;;;;;;10242672;28;95662;-65
2023/04/18 21:51:56;;;;;;;;;;;17.50;62.10;;;;;;10251381;28;93401;-65
2023/04/18 21:56:58;;;;;;;;;;;17.50;62.00;;;;;;10252332;28;94713;-65
2023/04/18 22:02:00;;;;;;;;;;;17.50;61.90;;;;;;10234139;28;93856;-65
2023/04/18 22:07:01;;;;;;;;;;;17.50;61.90;;;;;;10251385;28;92909;-64
2023/04/18 22:12:03;;;;;;;;;;;17.50;61.80;;;;;;10251648;28;93388;-65
2023/04/18 22:17:05;;;;;;;;;;;17.50;61.80;;;;;;10252845;28;93503;-66
2023/04/18 22:22:07;;;;;;;;;;;17.40;61.70;;;;;;10252061;28;92424;-66
2023/04/18 22:27:08;;;;;;;;;;;17.40;61.70;;;;;;10251794;28;94383;-66
2023/04/18 22:32:10;;;;;;;;;;;17.40;61.60;;;;;;10251220;28;93266;-66
2023/04/18 22:37:12;;;;;;;;;;;17.40;61.60;;;;;;10249768;28;96944;-65
2023/04/18 22:42:13;;;;;;;;;;;17.40;61.60;;;;;;10251398;28;94454;-66
2023/04/18 22:47:15;;;;;;;;;;;17.40;61.60;;;;;;10232657;28;94463;-66
2023/04/18 22:52:17;;;;;;;;;;;17.40;61.60;;;;;;10250382;28;92781;-66
2023/04/18 22:57:19;;;;;;;;;;;17.40;61.60;;;;;;10251255;28;94636;-66
2023/04/18 23:02:21;;;;;;;;;;;17.40;61.60;;;;;;10250132;28;93719;-66
2023/04/18 23:07:22;;;;;;;;;;;17.30;61.50;;;;;;10232047;28;92524;-66
2023/04/18 23:12:25;;;;;;;;;;;17.30;61.50;;;;;;10250960;28;93711;-66
2023/04/18 23:17:27;;;;;;;;;;;17.30;61.50;;;;;;10249987;28;93425;-66
2023/04/18 23:22:29;;;;;;;;;;;17.30;61.50;;;;;;10232797;28;93502;-66
2023/04/18 23:27:31;;;;;;;;;;;17.40;61.50;;;;;;10246277;28;95817;-66
2023/04/18 23:32:32;;;;;;;;;;;17.30;61.40;;;;;;10250736;28;94522;-66
2023/04/18 23:37:34;;;;;;;;;;;17.40;61.40;;;;;;10231920;28;94442;-65
2023/04/18 23:42:36;;;;;;;;;;;17.40;61.40;;;;;;10249205;28;93869;-65
2023/04/18 23:47:38;;;;;;;;;;;17.40;61.40;;;;;;10247913;28;93710;-65
2023/04/18 23:52:40;;;;;;;;;;;17.40;61.30;;;;;;10230837;28;93368;-66
2023/04/18 23:57:43;;;;;;;;;;;17.40;61.20;;;;;;10249893;28;94079;-66
